createdAt,value
2023-01-01T00:00:23.877Z,65.5
2023-01-01T00:01:40.169Z,65.6
2023-01-01T00:02:56.467Z,65.3
2023-01-01T00:04:12.759Z,65.2
2023-01-01T00:05:29.048Z,65.2
2023-01-01T00:06:45.352Z,65.2
2023-01-01T00:08:01.637Z,65.4
2023-01-01T00:09:17.935Z,65.4
2023-01-01T00:10:34.224Z,65.6
2023-01-01T00:11:49.541Z,65.6
2023-01-01T00:13:05.817Z,65.8
2023-01-01T00:14:22.103Z,66
2023-01-01T00:15:38.406Z,66.1
2023-01-01T00:16:54.707Z,66.4
2023-01-01T00:18:10.988Z,66.3
2023-01-01T00:19:27.281Z,66.3
2023-01-01T00:20:43.571Z,66.5
2023-01-01T00:21:59.869Z,66.7
2023-01-01T00:23:16.156Z,67
2023-01-01T00:24:32.461Z,67.2
2023-01-01T00:25:48.744Z,67.6
2023-01-01T00:27:05.030Z,67.9
2023-01-01T00:28:20.357Z,68.1
2023-01-01T00:29:36.637Z,68.3
2023-01-01T00:30:52.926Z,68.5
2023-01-01T00:32:09.237Z,68.6
2023-01-01T00:33:25.512Z,68.6
2023-01-01T00:34:41.801Z,68.8
2023-01-01T00:35:58.105Z,69
2023-01-01T00:37:14.393Z,69
2023-01-01T00:38:30.678Z,69.1
2023-01-01T00:39:46.970Z,69.2
2023-01-01T00:41:03.270Z,69.4
2023-01-01T00:42:19.559Z,69.5
2023-01-01T00:43:35.852Z,69.4
2023-01-01T00:44:51.172Z,69.4
2023-01-01T00:46:07.448Z,69.4
2023-01-01T00:47:23.745Z,69.4
2023-01-01T00:48:40.050Z,69.2
2023-01-01T00:49:56.339Z,69.3
2023-01-01T00:51:12.635Z,69.4
2023-01-01T00:52:28.913Z,69.3
2023-01-01T00:53:45.206Z,69.5
2023-01-01T00:55:01.498Z,69.6
2023-01-01T00:56:17.795Z,70
2023-01-01T00:57:34.081Z,69.9
2023-01-01T00:58:50.394Z,69.8
2023-01-01T01:00:06.689Z,69.8
2023-01-01T01:01:21.987Z,69.6
2023-01-01T01:02:38.270Z,69.5
2023-01-01T01:03:54.564Z,69.6
2023-01-01T01:05:10.856Z,69.6
2023-01-01T01:06:27.151Z,69.7
2023-01-01T01:07:43.458Z,69.8
2023-01-01T01:08:59.752Z,69.7
2023-01-01T01:10:16.045Z,69.8
2023-01-01T01:11:32.332Z,69.6
2023-01-01T01:12:48.624Z,69.4
2023-01-01T01:14:04.909Z,69.5
2023-01-01T01:15:21.212Z,69.5
2023-01-01T01:16:37.499Z,69.4
2023-01-01T01:17:52.806Z,69.6
2023-01-01T01:19:09.090Z,69.6
2023-01-01T01:20:25.388Z,69.5
2023-01-01T01:21:41.675Z,69.5
2023-01-01T01:22:57.959Z,69.5
2023-01-01T01:24:14.265Z,69.5
2023-01-01T01:25:30.560Z,69.4
2023-01-01T01:26:46.842Z,69.2
2023-01-01T01:28:03.132Z,69.3
2023-01-01T01:29:19.436Z,69.3
2023-01-01T01:30:35.714Z,69.3
2023-01-01T01:31:52.017Z,69.2
2023-01-01T01:33:08.320Z,69.2
2023-01-01T01:34:23.620Z,69.2
2023-01-01T01:35:39.916Z,69.1
2023-01-01T01:36:56.203Z,69.2
2023-01-01T01:38:12.505Z,69.3
2023-01-01T01:39:28.784Z,69.3
2023-01-01T01:40:45.076Z,69.1
2023-01-01T01:42:01.380Z,69.3
2023-01-01T01:43:17.670Z,69.4
2023-01-01T01:44:33.956Z,69.6
2023-01-01T01:45:50.253Z,69.6
2023-01-01T01:47:06.549Z,69.6
2023-01-01T01:48:22.835Z,69.3
2023-01-01T01:49:39.115Z,69.5
2023-01-01T01:50:54.423Z,69.6
2023-01-01T01:52:10.734Z,69.6
2023-01-01T01:53:27.022Z,69.7
2023-01-01T01:54:43.317Z,69.7
2023-01-01T01:55:59.598Z,69.7
2023-01-01T01:57:15.895Z,69.8
2023-01-01T01:58:32.179Z,69.8
2023-01-01T01:59:48.490Z,69.9
2023-01-01T02:01:04.768Z,70.1
2023-01-01T02:02:21.061Z,70.3
2023-01-01T02:03:37.363Z,70.2
2023-01-01T02:04:53.648Z,70.1
2023-01-01T02:06:09.935Z,69.8
2023-01-01T02:07:25.257Z,69.6
2023-01-01T02:08:41.554Z,69.6
2023-01-01T02:09:57.833Z,69.6
2023-01-01T02:11:14.129Z,69.4
2023-01-01T02:12:30.425Z,69.6
2023-01-01T02:13:46.715Z,69.6
2023-01-01T02:15:03.002Z,69.8
2023-01-01T02:16:19.307Z,69.6
2023-01-01T02:17:35.592Z,69.3
2023-01-01T02:18:51.889Z,69.3
2023-01-01T02:20:08.165Z,69.4
2023-01-01T02:21:24.467Z,69.1
2023-01-01T02:22:40.753Z,69
2023-01-01T02:23:56.066Z,68.8
2023-01-01T02:25:12.350Z,68.8
2023-01-01T02:26:28.660Z,68.9
2023-01-01T02:27:44.950Z,69
2023-01-01T02:29:01.245Z,68.6
2023-01-01T02:30:17.529Z,68.8
2023-01-01T02:31:33.833Z,68.6
2023-01-01T02:32:50.109Z,68.7
2023-01-01T02:34:06.403Z,68.5
2023-01-01T02:35:22.711Z,68.6
2023-01-01T02:36:39.000Z,68.5
2023-01-01T02:37:55.289Z,68.3
2023-01-01T02:39:11.577Z,68.3
2023-01-01T02:40:26.896Z,68.3
2023-01-01T02:41:43.180Z,68
2023-01-01T02:42:59.478Z,67.8
2023-01-01T02:44:15.762Z,68
2023-01-01T02:45:32.050Z,67.7
2023-01-01T02:46:48.345Z,67.8
2023-01-01T02:48:04.644Z,67.5
2023-01-01T02:49:20.945Z,67.5
2023-01-01T02:50:37.230Z,67.8
2023-01-01T02:51:53.520Z,67.7
2023-01-01T02:53:09.802Z,67.8
2023-01-01T02:54:26.095Z,67.8
2023-01-01T02:55:42.393Z,67.9
2023-01-01T02:56:57.704Z,67.9
2023-01-01T02:58:14.006Z,67.8
2023-01-01T02:59:30.292Z,67.9
2023-01-01T03:00:46.591Z,67.8
2023-01-01T03:02:02.867Z,67.7
2023-01-01T03:03:19.166Z,67.7
2023-01-01T03:04:35.456Z,67.8
2023-01-01T03:05:51.748Z,67.7
2023-01-01T03:07:08.038Z,67.8
2023-01-01T03:08:24.343Z,67.7
2023-01-01T03:09:40.630Z,67.7
2023-01-01T03:10:56.926Z,68
2023-01-01T03:13:29.504Z,68.6
2023-01-01T03:14:44.806Z,68.8
2023-01-01T03:16:01.109Z,68.9
2023-01-01T03:17:17.396Z,69
2023-01-01T03:18:33.696Z,69.2
2023-01-01T03:19:49.993Z,69.2
2023-01-01T03:21:05.297Z,69.2
2023-01-01T03:22:21.589Z,69.4
2023-01-01T03:23:37.887Z,69.4
2023-01-01T03:24:54.167Z,69.5
2023-01-01T03:26:10.461Z,69.5
2023-01-01T03:27:26.752Z,69.5
2023-01-01T03:28:43.057Z,69.4
2023-01-01T03:29:59.338Z,69.3
2023-01-01T03:31:15.645Z,69.1
2023-01-01T03:32:31.935Z,69.3
2023-01-01T03:33:48.215Z,69.2
2023-01-01T03:35:04.520Z,69.3
2023-01-01T03:36:20.816Z,69.3
2023-01-01T03:37:36.118Z,69.2
2023-01-01T03:38:52.416Z,69.3
2023-01-01T03:40:08.703Z,69.2
2023-01-01T03:41:24.996Z,69.4
2023-01-01T03:42:41.278Z,69.1
2023-01-01T03:43:57.576Z,69
2023-01-01T03:45:13.874Z,68.8
2023-01-01T03:46:30.170Z,68.5
2023-01-01T03:47:46.454Z,68.3
2023-01-01T03:49:02.765Z,68.2
2023-01-01T03:50:19.041Z,68.3
2023-01-01T03:51:35.339Z,68.5
2023-01-01T03:52:51.622Z,68.2
2023-01-01T03:54:06.930Z,68.2
2023-01-01T03:55:23.221Z,68.1
2023-01-01T03:56:39.511Z,68.1
2023-01-01T03:57:55.814Z,68
2023-01-01T03:59:12.110Z,68.1
2023-01-01T04:00:28.386Z,68
2023-01-01T04:01:44.695Z,67.8
2023-01-01T04:03:00.980Z,67.8
2023-01-01T04:04:17.263Z,67.9
2023-01-01T04:05:33.558Z,68.1
2023-01-01T04:06:49.856Z,68.2
2023-01-01T04:08:06.163Z,68.3
2023-01-01T04:09:22.446Z,68.2
2023-01-01T04:10:37.740Z,68.3
2023-01-01T04:11:54.044Z,68.2
2023-01-01T04:13:10.341Z,68.1
2023-01-01T04:14:26.625Z,68.1
2023-01-01T04:15:42.914Z,67.9
2023-01-01T04:16:59.220Z,68
2023-01-01T04:18:15.502Z,68.1
2023-01-01T04:19:31.802Z,68.3
2023-01-01T04:20:48.085Z,68.3
2023-01-01T04:22:04.375Z,68.4
2023-01-01T04:23:20.683Z,68.4
2023-01-01T04:24:36.977Z,68.4
2023-01-01T04:25:53.251Z,68.2
2023-01-01T04:27:08.571Z,68.3
2023-01-01T04:28:24.853Z,68.3
2023-01-01T04:29:41.155Z,68.5
2023-01-01T04:32:13.744Z,68.3
2023-01-01T04:33:30.029Z,68.2
2023-01-01T04:34:46.328Z,68.4
2023-01-01T04:36:02.618Z,68.4
2023-01-01T04:37:18.909Z,68.4
2023-01-01T04:38:35.195Z,68.2
2023-01-01T04:39:51.486Z,68.1
2023-01-01T04:41:07.806Z,68.2
2023-01-01T04:42:24.076Z,68.3
2023-01-01T04:43:39.379Z,68.6
2023-01-01T04:44:55.674Z,68.5
2023-01-01T04:46:11.960Z,68.4
2023-01-01T04:47:28.263Z,68.3
2023-01-01T04:48:44.545Z,68.4
2023-01-01T04:50:00.843Z,68.6
2023-01-01T04:51:17.141Z,68.6
2023-01-01T04:52:33.433Z,68.6
2023-01-01T04:53:49.732Z,68.4
2023-01-01T04:55:06.038Z,68.6
2023-01-01T04:56:22.305Z,68.7
2023-01-01T04:57:38.604Z,68.6
2023-01-01T04:58:54.906Z,68.6
2023-01-01T05:00:10.212Z,68.9
2023-01-01T05:01:26.484Z,69.2
2023-01-01T05:02:42.791Z,69.3
2023-01-01T05:03:59.092Z,69.4
2023-01-01T05:05:15.382Z,69.2
2023-01-01T05:06:31.657Z,69.3
2023-01-01T05:07:47.961Z,69.4
2023-01-01T05:09:04.245Z,69.6
2023-01-01T05:10:20.549Z,69.8
2023-01-01T05:11:36.851Z,69.8
2023-01-01T05:12:53.125Z,69.9
2023-01-01T05:14:09.439Z,70
2023-01-01T05:15:25.704Z,70.2
2023-01-01T05:16:41.028Z,70.3
2023-01-01T05:17:57.303Z,70.5
2023-01-01T05:19:13.608Z,70.6
2023-01-01T05:20:29.893Z,70.7
2023-01-01T05:21:46.198Z,70.8
2023-01-01T05:23:02.482Z,71
2023-01-01T05:24:18.769Z,71.3
2023-01-01T05:25:35.070Z,71.4
2023-01-01T05:26:51.375Z,71.3
2023-01-01T05:28:07.658Z,71.4
2023-01-01T05:29:23.950Z,71.4
2023-01-01T05:30:40.232Z,71.5
2023-01-01T05:31:56.542Z,71.5
2023-01-01T05:33:11.854Z,71.6
2023-01-01T05:35:44.439Z,71.6
2023-01-01T05:37:00.720Z,71.5
2023-01-01T05:38:17.011Z,71.6
2023-01-01T05:39:33.292Z,71.4
2023-01-01T05:40:49.589Z,71.3
2023-01-01T05:42:05.888Z,71
2023-01-01T05:43:22.192Z,71.2
2023-01-01T05:44:38.460Z,71.2
2023-01-01T05:45:54.765Z,71.3
2023-01-01T05:47:11.058Z,71.3
2023-01-01T05:48:27.342Z,71.3
2023-01-01T05:49:42.664Z,71.3
2023-01-01T05:50:58.941Z,71.3
2023-01-01T05:52:15.249Z,71
2023-01-01T05:53:31.523Z,71
2023-01-01T05:54:47.825Z,71
2023-01-01T05:56:04.108Z,70.8
2023-01-01T05:57:20.420Z,71
2023-01-01T05:58:36.693Z,71
2023-01-01T05:59:52.998Z,70.8
2023-01-01T06:01:09.298Z,71
2023-01-01T06:02:25.571Z,70.8
2023-01-01T06:03:41.880Z,70.8
2023-01-01T06:04:58.167Z,70.7
2023-01-01T06:06:13.466Z,70.6
2023-01-01T06:07:29.759Z,70.4
2023-01-01T06:08:46.067Z,70.5
2023-01-01T06:10:02.358Z,70.8
2023-01-01T06:11:18.650Z,70.8
2023-01-01T06:12:34.942Z,70.8
2023-01-01T06:13:51.230Z,70.8
2023-01-01T06:15:07.524Z,71
2023-01-01T06:16:23.813Z,71
2023-01-01T06:17:40.098Z,70.6
2023-01-01T06:18:56.399Z,70.5
2023-01-01T06:20:12.699Z,70.7
2023-01-01T06:21:28.978Z,70.8
2023-01-01T06:22:44.284Z,71
2023-01-01T06:24:00.595Z,71
2023-01-01T06:25:16.886Z,71.2
2023-01-01T06:26:33.162Z,71.3
2023-01-01T06:27:49.458Z,71.3
2023-01-01T06:29:05.761Z,71.3
2023-01-01T06:30:22.039Z,71.3
2023-01-01T06:31:38.332Z,71
2023-01-01T06:32:54.636Z,71
2023-01-01T06:34:10.921Z,70.8
2023-01-01T06:35:27.211Z,70.8
2023-01-01T06:36:43.498Z,70.8
2023-01-01T06:37:59.798Z,70.7
2023-01-01T06:39:15.102Z,70.5
2023-01-01T06:40:31.412Z,70.5
2023-01-01T06:41:47.696Z,70.7
2023-01-01T06:43:03.995Z,70.7
2023-01-01T06:44:20.223Z,70.8
2023-01-01T06:45:36.523Z,71
2023-01-01T06:46:52.813Z,71
2023-01-01T06:48:09.052Z,71.2
2023-01-01T06:49:25.299Z,71
2023-01-01T06:50:41.538Z,71
2023-01-01T06:51:57.823Z,71.2
2023-01-01T06:53:14.132Z,71.3
2023-01-01T06:54:30.368Z,71.5
2023-01-01T06:55:45.635Z,71.6
2023-01-01T06:57:01.877Z,71.7
2023-01-01T06:58:18.174Z,71.6
2023-01-01T06:59:34.412Z,71.7
2023-01-01T07:00:50.666Z,71.8
2023-01-01T07:02:06.885Z,71.9
2023-01-01T07:03:23.131Z,71.9
2023-01-01T07:04:39.382Z,71.9
2023-01-01T07:05:55.601Z,71.8
2023-01-01T07:07:11.854Z,71.8
2023-01-01T07:08:28.077Z,71.9
2023-01-01T07:09:44.319Z,71.9
2023-01-01T07:11:00.556Z,72
2023-01-01T07:12:15.810Z,72.2
2023-01-01T07:13:32.065Z,72.2
2023-01-01T07:14:48.297Z,72.3
2023-01-01T07:16:04.550Z,72.3
2023-01-01T07:17:20.764Z,72.3
2023-01-01T07:18:37.017Z,72.1
2023-01-01T07:19:53.240Z,72.1
2023-01-01T07:21:09.486Z,72.1
2023-01-01T07:22:25.721Z,72.3
2023-01-01T07:23:41.968Z,72.3
2023-01-01T07:24:58.197Z,72.5
2023-01-01T07:26:14.451Z,72.8
2023-01-01T07:27:30.684Z,73
2023-01-01T07:28:45.935Z,73
2023-01-01T07:30:02.170Z,73
2023-01-01T07:31:18.411Z,73.2
2023-01-01T07:32:34.658Z,73.4
2023-01-01T07:33:50.886Z,73.5
2023-01-01T07:35:07.123Z,73.6
2023-01-01T07:36:22.387Z,73.7
2023-01-01T07:37:38.617Z,73.7
2023-01-01T07:38:54.852Z,73.7
2023-01-01T07:40:11.104Z,73.7
2023-01-01T07:41:27.340Z,73.9
2023-01-01T07:42:43.581Z,74
2023-01-01T07:43:59.805Z,74.3
2023-01-01T07:46:32.287Z,74.8
2023-01-01T07:47:48.528Z,74.8
2023-01-01T07:49:04.773Z,75
2023-01-01T07:50:21.023Z,75.1
2023-01-01T07:51:37.254Z,75.2
2023-01-01T07:52:52.499Z,75.3
2023-01-01T07:54:08.739Z,75.5
2023-01-01T07:55:24.987Z,75.6
2023-01-01T07:56:41.206Z,75.6
2023-01-01T07:57:57.449Z,75.6
2023-01-01T07:59:13.686Z,75.6
2023-01-01T08:00:29.921Z,75.7
2023-01-01T08:01:46.170Z,75.8
2023-01-01T08:03:02.415Z,75.9
2023-01-01T08:04:18.649Z,75.9
2023-01-01T08:05:34.892Z,75.9
2023-01-01T08:06:51.119Z,75.9
2023-01-01T08:08:07.357Z,75.9
2023-01-01T08:09:22.620Z,75.9
2023-01-01T08:10:38.853Z,76
2023-01-01T08:11:55.101Z,76.1
2023-01-01T08:13:11.334Z,75.9
2023-01-01T08:14:27.566Z,76
2023-01-01T08:15:43.802Z,75.8
2023-01-01T08:17:00.045Z,75.8
2023-01-01T08:18:16.289Z,75.7
2023-01-01T08:19:32.523Z,75.4
2023-01-01T08:20:48.758Z,75.5
2023-01-01T08:22:04.993Z,75.3
2023-01-01T08:23:21.244Z,75.3
2023-01-01T08:24:37.476Z,75.3
2023-01-01T08:25:52.739Z,75.3
2023-01-01T08:27:08.964Z,75
2023-01-01T08:28:25.212Z,74.9
2023-01-01T08:29:41.447Z,74.6
2023-01-01T08:30:57.681Z,74.5
2023-01-01T08:32:13.932Z,74.2
2023-01-01T08:33:30.152Z,73.8
2023-01-01T08:34:46.401Z,73.7
2023-01-01T08:36:02.647Z,73.6
2023-01-01T08:37:18.873Z,73.4
2023-01-01T08:38:35.111Z,73.3
2023-01-01T08:39:51.356Z,73.3
2023-01-01T08:41:07.602Z,73
2023-01-01T08:42:22.856Z,72.6
2023-01-01T08:43:39.092Z,71.6
2023-01-01T08:44:55.335Z,71
2023-01-01T08:46:11.560Z,70.5
2023-01-01T08:47:27.806Z,70.1
2023-01-01T08:48:44.037Z,69.7
2023-01-01T08:50:00.286Z,69.7
2023-01-01T08:51:16.519Z,69.6
2023-01-01T08:52:32.746Z,69.2
2023-01-01T08:53:48.988Z,69.1
2023-01-01T08:55:05.238Z,68.6
2023-01-01T08:56:21.473Z,68.9
2023-01-01T08:57:37.714Z,68.6
2023-01-01T08:58:52.979Z,68.4
2023-01-01T09:00:09.214Z,68.7
2023-01-01T09:01:25.434Z,68.4
2023-01-01T09:02:41.675Z,67.9
2023-01-01T09:03:57.913Z,68.1
2023-01-01T09:05:14.158Z,68.1
2023-01-01T09:06:30.387Z,67.9
2023-01-01T09:07:46.635Z,67.9
2023-01-01T09:09:02.871Z,67.8
2023-01-01T09:10:19.116Z,67.6
2023-01-01T09:11:35.358Z,67.6
2023-01-01T09:12:51.584Z,67.6
2023-01-01T09:14:07.831Z,67.8
2023-01-01T09:15:23.082Z,67.6
2023-01-01T09:16:39.318Z,67.8
2023-01-01T09:17:55.564Z,67.7
2023-01-01T09:19:11.804Z,67.4
2023-01-01T09:20:28.048Z,67.5
2023-01-01T09:21:44.282Z,67.6
2023-01-01T09:23:00.502Z,67.4
2023-01-01T09:24:16.742Z,67.5
2023-01-01T09:25:32.981Z,67.6
2023-01-01T09:26:49.235Z,67.4
2023-01-01T09:28:05.461Z,67.7
2023-01-01T09:29:21.714Z,67.4
2023-01-01T09:30:37.939Z,67.3
2023-01-01T09:31:53.203Z,67.7
2023-01-01T09:33:09.441Z,67.4
2023-01-01T09:34:25.663Z,67.1
2023-01-01T09:35:41.911Z,67.4
2023-01-01T09:36:58.167Z,67.6
2023-01-01T09:38:14.379Z,67.4
2023-01-01T09:39:30.632Z,67.4
2023-01-01T09:40:46.868Z,67.2
2023-01-01T09:42:03.110Z,66.9
2023-01-01T09:43:19.335Z,66.8
2023-01-01T09:44:35.579Z,66.9
2023-01-01T09:45:51.814Z,66.5
2023-01-01T09:47:08.067Z,66.5
2023-01-01T09:48:23.318Z,66.5
2023-01-01T09:49:39.542Z,66.1
2023-01-01T09:50:55.793Z,66
2023-01-01T09:52:12.034Z,65.5
2023-01-01T09:53:28.272Z,65.9
2023-01-01T09:54:44.500Z,65.3
2023-01-01T09:56:00.746Z,65.6
2023-01-01T09:57:16.977Z,65.6
2023-01-01T09:58:33.229Z,65.6
2023-01-01T09:59:49.467Z,65.6
2023-01-01T10:01:05.691Z,65.4
2023-01-01T10:02:21.941Z,65.3
2023-01-01T10:03:38.169Z,65.2
2023-01-01T10:04:53.421Z,65.3
2023-01-01T10:06:09.662Z,65.4
2023-01-01T10:07:25.909Z,65.8
2023-01-01T10:08:42.150Z,66
2023-01-01T10:09:58.396Z,65.9
2023-01-01T10:11:14.614Z,65.9
2023-01-01T10:12:30.857Z,65.9
2023-01-01T10:13:47.087Z,66.3
2023-01-01T10:15:03.334Z,66.5
2023-01-01T10:16:19.571Z,66.7
2023-01-01T10:17:35.825Z,66.2
2023-01-01T10:18:52.069Z,66.4
2023-01-01T10:20:08.283Z,66.4
2023-01-01T10:21:23.539Z,66.2
2023-01-01T10:22:39.802Z,66.3
2023-01-01T10:23:56.030Z,66.6
2023-01-01T10:25:12.257Z,66.5
2023-01-01T10:26:28.504Z,66.7
2023-01-01T10:27:44.746Z,66.3
2023-01-01T10:29:00.970Z,66.1
2023-01-01T10:30:17.219Z,66.5
2023-01-01T10:31:33.450Z,66.3
2023-01-01T10:32:49.697Z,66.2
2023-01-01T10:34:05.930Z,65.9
2023-01-01T10:35:22.162Z,65.9
2023-01-01T10:36:38.411Z,65.6
2023-01-01T10:37:53.671Z,65
2023-01-01T10:39:09.899Z,65.3
2023-01-01T10:40:26.136Z,65
2023-01-01T10:41:42.377Z,64.7
2023-01-01T10:42:58.607Z,64.4
2023-01-01T10:44:14.847Z,64.1
2023-01-01T10:45:31.095Z,64.3
2023-01-01T10:46:47.339Z,64.3
2023-01-01T10:48:03.580Z,63.8
2023-01-01T10:49:19.805Z,64
2023-01-01T10:50:36.055Z,64
2023-01-01T10:51:52.286Z,64.2
2023-01-01T10:53:08.533Z,64.1
2023-01-01T10:54:23.789Z,63.9
2023-01-01T10:55:40.037Z,64.1
2023-01-01T10:56:56.257Z,64.3
2023-01-01T10:58:12.494Z,64.4
2023-01-01T10:59:28.726Z,64.4
2023-01-01T11:00:44.965Z,64.4
2023-01-01T11:02:01.213Z,64.8
2023-01-01T11:03:17.444Z,64.7
2023-01-01T11:04:33.703Z,64.8
2023-01-01T11:05:49.925Z,64.8
2023-01-01T11:07:06.164Z,64.7
2023-01-01T11:08:22.406Z,64.9
2023-01-01T11:09:38.653Z,64.7
2023-01-01T11:10:53.912Z,64.6
2023-01-01T11:12:10.137Z,64.7
2023-01-01T11:13:26.394Z,64.7
2023-01-01T11:14:42.608Z,65
2023-01-01T11:15:58.863Z,65
2023-01-01T11:17:15.097Z,65.3
2023-01-01T11:18:31.330Z,65.3
2023-01-01T11:19:47.568Z,65.3
2023-01-01T11:21:03.812Z,65.5
2023-01-01T11:22:20.049Z,65.7
2023-01-01T11:23:36.292Z,65.9
2023-01-01T11:24:52.529Z,65.9
2023-01-01T11:26:08.765Z,66
2023-01-01T11:27:24.027Z,65.5
2023-01-01T11:28:40.271Z,65.8
2023-01-01T11:29:56.511Z,65.9
2023-01-01T11:31:12.747Z,66.2
2023-01-01T11:32:28.965Z,66
2023-01-01T11:33:45.225Z,66
2023-01-01T11:35:01.446Z,66.3
2023-01-01T11:36:17.705Z,66.1
2023-01-01T11:37:33.938Z,65.9
2023-01-01T11:38:50.170Z,65.7
2023-01-01T11:40:06.395Z,65.7
2023-01-01T11:41:22.636Z,65.8
2023-01-01T11:42:38.872Z,65.4
2023-01-01T11:43:54.127Z,65.5
2023-01-01T11:45:10.392Z,65.4
2023-01-01T11:46:26.604Z,65.4
2023-01-01T11:47:42.842Z,65.5
2023-01-01T11:48:59.085Z,65.4
2023-01-01T11:50:15.335Z,65.4
2023-01-01T11:51:30.590Z,65.3
2023-01-01T11:52:46.832Z,65.4
2023-01-01T11:54:03.057Z,65.6
2023-01-01T11:55:19.309Z,64.8
2023-01-01T11:56:35.554Z,65
2023-01-01T11:57:51.786Z,64.8
2023-01-01T11:59:08.019Z,64.9
2023-01-01T12:00:24.275Z,65
2023-01-01T12:01:40.504Z,64.7
2023-01-01T12:02:56.727Z,64.6
2023-01-01T12:04:12.966Z,64.4
2023-01-01T12:05:29.208Z,64.3
2023-01-01T12:08:01.699Z,64.4
2023-01-01T12:09:16.937Z,64.5
2023-01-01T12:10:33.180Z,64.7
2023-01-01T12:11:49.427Z,64.4
2023-01-01T12:13:05.655Z,64.5
2023-01-01T12:14:21.908Z,64.7
2023-01-01T12:15:38.138Z,64.8
2023-01-01T12:16:54.384Z,64.7
2023-01-01T12:18:10.617Z,64.6
2023-01-01T12:19:26.862Z,64.5
2023-01-01T12:20:43.108Z,64.7
2023-01-01T12:21:59.333Z,64.7
2023-01-01T12:23:15.574Z,65
2023-01-01T12:24:31.808Z,65.1
2023-01-01T12:25:47.056Z,64.8
2023-01-01T12:27:03.291Z,65
2023-01-01T12:28:19.546Z,64.9
2023-01-01T12:29:35.785Z,64.8
2023-01-01T12:30:52.012Z,64.9
2023-01-01T12:32:08.244Z,64.9
2023-01-01T12:33:24.506Z,65.2
2023-01-01T12:34:40.733Z,65
2023-01-01T12:35:56.972Z,65.1
2023-01-01T12:37:13.203Z,64.8
2023-01-01T12:38:29.451Z,64.7
2023-01-01T12:39:45.690Z,64.3
2023-01-01T12:41:01.927Z,64.6
2023-01-01T12:42:17.175Z,64.7
2023-01-01T12:43:33.409Z,64.6
2023-01-01T12:44:49.648Z,64.6
2023-01-01T12:46:05.889Z,65
2023-01-01T12:47:22.154Z,64.9
2023-01-01T12:48:38.384Z,65
2023-01-01T12:49:54.617Z,64.7
2023-01-01T12:51:10.858Z,64.8
2023-01-01T12:52:27.079Z,64.8
2023-01-01T12:53:43.345Z,65
2023-01-01T12:54:59.565Z,64.7
2023-01-01T12:56:15.806Z,65.1
2023-01-01T12:57:32.038Z,64.9
2023-01-01T12:58:47.296Z,64.8
2023-01-01T13:00:03.541Z,64.7
2023-01-01T13:01:19.782Z,64.9
2023-01-01T13:02:36.000Z,64.6
2023-01-01T13:03:52.244Z,64.7
2023-01-01T13:05:08.490Z,64.5
2023-01-01T13:06:24.717Z,64.2
2023-01-01T13:07:40.955Z,64.2
2023-01-01T13:08:57.210Z,64.3
2023-01-01T13:10:13.442Z,64.3
2023-01-01T13:11:29.688Z,64.2
2023-01-01T13:12:45.909Z,64.3
2023-01-01T13:14:02.150Z,64.8
2023-01-01T13:15:17.419Z,64.9
2023-01-01T13:16:33.644Z,65.3
2023-01-01T13:17:49.894Z,65.5
2023-01-01T13:19:06.125Z,65.6
2023-01-01T13:20:22.368Z,65.7
2023-01-01T13:21:38.607Z,65.8
2023-01-01T13:22:54.842Z,65.8
2023-01-01T13:24:11.076Z,66
2023-01-01T13:25:27.316Z,65.9
2023-01-01T13:26:43.553Z,66.1
2023-01-01T13:27:59.805Z,66.4
2023-01-01T13:29:16.039Z,66.4
2023-01-01T13:30:32.265Z,66.4
2023-01-01T13:31:47.552Z,66
2023-01-01T13:33:03.761Z,66.6
2023-01-01T13:34:19.999Z,66.4
2023-01-01T13:35:36.240Z,66.5
2023-01-01T13:36:52.483Z,66.7
2023-01-01T13:38:08.715Z,66.8
2023-01-01T13:39:24.952Z,66.9
2023-01-01T13:40:41.198Z,66.9
2023-01-01T13:41:57.427Z,67
2023-01-01T13:43:13.676Z,67
2023-01-01T13:44:29.908Z,67.2
2023-01-01T13:45:46.146Z,67.5
2023-01-01T13:47:02.396Z,67.5
2023-01-01T13:48:17.635Z,67.7
2023-01-01T13:49:33.879Z,67.6
2023-01-01T13:50:50.109Z,67.4
2023-01-01T13:52:06.354Z,67.7
2023-01-01T13:53:22.589Z,67.7
2023-01-01T13:54:38.830Z,67.6
2023-01-01T13:55:55.071Z,67.6
2023-01-01T13:57:11.330Z,67.7
2023-01-01T13:58:27.544Z,67.8
2023-01-01T13:59:43.784Z,67.8
2023-01-01T14:01:00.014Z,68
2023-01-01T14:02:16.255Z,68
2023-01-01T14:03:32.510Z,68
2023-01-01T14:04:47.762Z,68.2
2023-01-01T14:06:04.002Z,68.2
2023-01-01T14:07:20.228Z,68.4
2023-01-01T14:08:36.480Z,68.5
2023-01-01T14:09:52.709Z,68.5
2023-01-01T14:11:08.941Z,68.5
2023-01-01T14:12:25.187Z,68.8
2023-01-01T14:13:41.417Z,68.8
2023-01-01T14:14:57.667Z,68.8
2023-01-01T14:16:13.896Z,68.9
2023-01-01T14:17:30.143Z,69
2023-01-01T14:18:46.379Z,69.1
2023-01-01T14:20:02.623Z,69.3
2023-01-01T14:21:17.872Z,69.4
2023-01-01T14:22:34.118Z,69.6
2023-01-01T14:23:50.356Z,69.5
2023-01-01T14:25:06.582Z,69.7
2023-01-01T14:26:22.819Z,69.8
2023-01-01T14:27:39.057Z,69.6
2023-01-01T14:28:55.295Z,69.6
2023-01-01T14:30:11.531Z,69.6
2023-01-01T14:31:27.778Z,69.4
2023-01-01T14:32:44.016Z,69.4
2023-01-01T14:34:00.256Z,69.5
2023-01-01T14:35:16.492Z,69.3
2023-01-01T14:36:32.733Z,69.2
2023-01-01T14:37:47.991Z,69.3
2023-01-01T14:39:04.217Z,69
2023-01-01T14:40:20.457Z,69.4
2023-01-01T14:41:36.701Z,69.2
2023-01-01T14:42:52.933Z,69.3
2023-01-01T14:44:09.179Z,69.3
2023-01-01T14:45:25.421Z,69.3
2023-01-01T14:46:41.653Z,69.4
2023-01-01T14:47:57.898Z,69.4
2023-01-01T14:49:14.143Z,69.3
2023-01-01T14:50:30.377Z,69.3
2023-01-01T14:51:46.620Z,69.4
2023-01-01T14:53:02.862Z,69.5
2023-01-01T14:54:18.107Z,69.5
2023-01-01T14:55:34.330Z,69.3
2023-01-01T14:56:50.571Z,69.6
2023-01-01T14:58:06.826Z,69.9
2023-01-01T14:59:23.064Z,69.6
2023-01-01T15:00:39.288Z,69.8
2023-01-01T15:01:55.540Z,69.7
2023-01-01T15:03:11.762Z,70
2023-01-01T15:04:27.999Z,69.9
2023-01-01T15:05:44.255Z,69.9
2023-01-01T15:07:00.477Z,69.8
2023-01-01T15:08:16.731Z,69.9
2023-01-01T15:09:32.958Z,69.8
2023-01-01T15:10:48.206Z,69.7
2023-01-01T15:12:04.459Z,69.6
2023-01-01T15:13:20.700Z,69.7
2023-01-01T15:14:36.928Z,69.4
2023-01-01T15:15:53.177Z,69.7
2023-01-01T15:17:09.405Z,69.5
2023-01-01T15:18:25.659Z,69.6
2023-01-01T15:19:41.894Z,69.5
2023-01-01T15:20:58.129Z,69.6
2023-01-01T15:22:14.375Z,69.5
2023-01-01T15:23:30.603Z,69.5
2023-01-01T15:24:46.835Z,69.6
2023-01-01T15:26:03.070Z,69.7
2023-01-01T15:27:18.345Z,69.7
2023-01-01T15:28:34.574Z,69.7
2023-01-01T15:29:50.800Z,69.7
2023-01-01T15:31:07.047Z,69.7
2023-01-01T15:32:23.285Z,69.7
2023-01-01T15:33:39.519Z,69.5
2023-01-01T15:34:55.771Z,69.5
2023-01-01T15:36:12.019Z,69.4
2023-01-01T15:37:28.238Z,69.4
2023-01-01T15:38:44.466Z,69.7
2023-01-01T15:40:00.000Z,69.7
2023-01-01T15:41:17.054Z,69.8
2023-01-01T15:42:33.352Z,69.9
2023-01-01T15:43:48.678Z,69.9
2023-01-01T15:45:04.960Z,70.1
2023-01-01T15:46:21.241Z,69.9
2023-01-01T15:47:37.543Z,69.9
2023-01-01T15:48:53.832Z,70
2023-01-01T15:50:10.123Z,70.1
2023-01-01T15:51:26.423Z,70.2
2023-01-01T15:52:42.716Z,70.2
2023-01-01T15:53:59.008Z,70.2
2023-01-01T15:55:15.285Z,70.3
2023-01-01T15:56:31.580Z,70.2
2023-01-01T15:57:47.873Z,70.2
2023-01-01T15:59:04.172Z,70.4
2023-01-01T16:00:19.498Z,70.5
2023-01-01T16:01:35.782Z,70.7
2023-01-01T16:02:52.070Z,70.8
2023-01-01T16:04:08.352Z,70.9
2023-01-01T16:05:24.670Z,71
2023-01-01T16:06:39.956Z,71.2
2023-01-01T16:07:56.265Z,71.3
2023-01-01T16:09:12.538Z,71.7
2023-01-01T16:10:28.837Z,71.8
2023-01-01T16:11:45.143Z,71.9
2023-01-01T16:13:01.423Z,72.1
2023-01-01T16:14:17.716Z,72.4
2023-01-01T16:15:34.020Z,72.5
2023-01-01T16:16:50.310Z,72.5
2023-01-01T16:18:06.604Z,72.8
2023-01-01T16:19:22.895Z,72.7
2023-01-01T16:20:39.182Z,72.7
2023-01-01T16:21:55.468Z,72.9
2023-01-01T16:23:10.782Z,72.8
2023-01-01T16:24:27.077Z,72.7
2023-01-01T16:25:43.360Z,72.6
2023-01-01T16:26:59.651Z,72.4
2023-01-01T16:28:15.944Z,72.4
2023-01-01T16:29:32.244Z,72.3
2023-01-01T16:30:48.533Z,72
2023-01-01T16:32:04.835Z,72
2023-01-01T16:33:21.115Z,71.9
2023-01-01T16:34:37.438Z,72.1
2023-01-01T16:35:53.716Z,72
2023-01-01T16:37:09.990Z,71.8
2023-01-01T16:38:26.292Z,71.7
2023-01-01T16:39:42.721Z,71.5
2023-01-01T16:40:59.000Z,71.6
2023-01-01T16:42:15.290Z,71.6
2023-01-01T16:43:31.586Z,71.8
2023-01-01T16:44:47.885Z,71.6
2023-01-01T16:46:04.161Z,71.4
2023-01-01T16:47:20.451Z,71.5
2023-01-01T16:48:36.750Z,71.6
2023-01-01T16:49:53.046Z,71.7
2023-01-01T16:51:09.344Z,71.9
2023-01-01T16:52:25.622Z,72
2023-01-01T16:53:41.928Z,72.2
2023-01-01T16:54:58.204Z,72.3
2023-01-01T16:56:13.527Z,72.4
2023-01-01T16:57:29.805Z,72.5
2023-01-01T16:58:46.108Z,72.6
2023-01-01T17:00:02.391Z,72.7
2023-01-01T17:01:18.689Z,72.9
2023-01-01T17:02:34.993Z,72.9
2023-01-01T17:03:51.284Z,73
2023-01-01T17:05:07.561Z,73
2023-01-01T17:06:23.858Z,73
2023-01-01T17:07:40.160Z,73.2